Flora Municipal, IL

05:08 PM CDT am 27. März 2015 (GMT -0500)
Olney-Noble | | Change Station
CLOSE
Current Station
Flughafen
Location: Olney-Noble,
Höhe: 482 ft
Wetterstationen in der Umgebung
aktive Warnung: Flood Warning

Höhe 482 ft 38.72 °N, 88.18 °W | Updated 13 minutes ago

Bedeckt
Bedeckt
37 °F
gefühlte 29 °F
N
13
Wind Wechselnd Wind aus Nord-Nordwest
Gusts 20 mph

Heute
Max. -- | schwach -- °F
--% Regenrisiko
Gestern
Max. -- | schwach -- °F
Precip. -- inch
6:46 AM 7:12 PM
Erstes Viertel, 56% visible
Druck 30.11 inch
Sichtweite 10.0 Meilen
Wolken Bedeckt 5000 ft
Windchill 29 °F
Taupunkt 21 °F
Feuchtigkeit 52%
Regen 0.00 inch
Schneehöhe Nicht verfügbar..
UV 1 von 12
Pollen 8.60 von 12
Luftqualität Nicht verfügbar..
Flu Activity Nicht verfügbar..
METAR KOLY 272155Z AUTO 34011G17KT 10SM OVC050 03/M06 A3011 RMK AO2

More Conditions Fewer Conditions

Druck 30.11 inch
Sichtweite 10.0 Meilen
Wolken Bedeckt 5000 ft
Windchill 29 °F
Taupunkt 21 °F
Feuchtigkeit 52%
Regen 0.00 inch
Schneehöhe Nicht verfügbar..
UV 1 von 12
Pollen 8.60 von 12
Luftqualität Nicht verfügbar..
Flu Activity Nicht verfügbar..
METAR KOLY 272155Z AUTO 34011G17KT 10SM OVC050 03/M06 A3011 RMK AO2

More Conditions Fewer Conditions

10-Day Weather Forecast

Almanac

Astronomie

Mar. 27, 2015 Aufgang Untergang
Genaue Zeit
Bürgerliche Dämmerung
Nautische Dämmerung
Astronomische Dämmerung
Mond
Länge des sichtbaren Lichts
Tageslänge
Tomorrow will be .
, % of the Moon is Illuminated

Heutige Rekorde

State Highs State Lows

Community

WunderPhotos

Upload Photos

1,808,843 Fotos hochgeladen!

WunderBlogs® & News

Nearby

Luftqualität

  Luftqualität LQ Index Schadstoff
Not available.

Schneehöhe

Station Depth Höhe

Erdbebenaktivität

Stadt Distance Mag. Time & Date
Minimum magnitude displayed is 2.5.

küstennahe Wassertemperaturen

Ort Temperatur

Stations

Wetterstationen in der Umgebung

Stationsstandort Temp. Windchill Taupunkt Feuchtigkeit Wind Precip. Höhe Aktualisiert Art
                   
Flood Warning
Statement as of 09:07 AM CDT am 27. März 2015

The Flood Warning continues for
the Little Wabash River near Clay City.
* Until Monday afternoon.
* At 845 am Friday the stage was 18.8 feet.
* Flood stage is 18 feet.
* Minor flooding is occurring and minor flooding is forecast.
* Forecast... the river will be fairly steady through tomorrow evening.
The river will fall below flood stage Monday morning.
* Impact... at 18.5 feet... Wilcox bridge Lane floods just east of the
Little Wabash River near the gage location. Blueflower Lane
southeast of the gage begins to flood.



                  Fld observed forecast 6am
location stg stg day time Sat sun Mon

Little Wabash River
Clay City 18 18.8 Fri 9 am 18.8 18.9 18.0



Lat... Lon 3878 8846 3871 8829 3860 8820 3860 8832
      3867 8838 3870 8846

Geelhart